Time;durP1;ratioP1;P1;durP2;ratioP2;P2;SDS_P1;SDS_P2;PMS_P1;PMS_P2;Temp;Humidity;BMP_temperature;BMP_pressure;BME280_temperature;BME280_humidity;BME280_pressure;Samples;Min_cycle;Max_cycle;Signal;HPM_P1;HPM_P2
2024/04/09 00:00:34;;;;;;;114.80;75.53;;;;;;;;;;5312012;26;20012;-66
2024/04/09 00:03:00;;;;;;;97.43;62.97;;;;;;;;;;5311694;26;20022;-67
2024/04/09 00:05:31;;;;;;;100.25;63.20;;;;;;;;;;5311774;26;20037;-66
2024/04/09 00:07:58;;;;;;;108.95;67.93;;;;;;;;;;5311717;26;20450;-65
2024/04/09 00:10:25;;;;;;;99.90;64.38;;;;;;;;;;5311908;26;20013;-66
2024/04/09 00:12:52;;;;;;;112.57;69.45;;;;;;;;;;5311600;26;20037;-66
2024/04/09 00:15:18;;;;;;;120.00;75.15;;;;;;;;;;5310797;26;20033;-66
2024/04/09 00:17:55;;;;;;;110.20;71.28;;;;;;;;;;5450736;21;20419;-66
2024/04/09 00:20:24;;;;;;;109.85;73.50;;;;;;;;;;5449665;26;20014;-67
2024/04/09 00:22:55;;;;;;;110.70;72.13;;;;;;;;;;5449523;26;20003;-67
2024/04/09 00:25:22;;;;;;;113.75;76.00;;;;;;;;;;5449979;26;20316;-66
2024/04/09 00:27:52;;;;;;;110.93;72.95;;;;;;;;;;5449994;26;20018;-66
2024/04/09 00:30:18;;;;;;;108.70;70.93;;;;;;;;;;5449828;26;19999;-66
2024/04/09 00:32:44;;;;;;;113.97;75.30;;;;;;;;;;5449320;26;20007;-66
2024/04/09 00:35:11;;;;;;;100.07;67.93;;;;;;;;;;5443147;26;20007;-67
2024/04/09 00:37:41;;;;;;;106.35;71.30;;;;;;;;;;5449651;26;20030;-66
2024/04/09 00:40:10;;;;;;;107.93;71.60;;;;;;;;;;5430026;26;20003;-66
2024/04/09 00:42:37;;;;;;;107.90;71.68;;;;;;;;;;5440178;26;19999;-66
2024/04/09 00:45:07;;;;;;;103.40;68.38;;;;;;;;;;5449425;26;19999;-66
2024/04/09 00:47:36;;;;;;;109.47;69.97;;;;;;;;;;5449684;26;19995;-66
2024/04/09 00:50:04;;;;;;;103.43;69.43;;;;;;;;;;5449432;26;20423;-66
2024/04/09 00:52:31;;;;;;;104.63;67.28;;;;;;;;;;5448970;26;20418;-66
2024/04/09 00:54:58;;;;;;;94.97;62.42;;;;;;;;;;5449262;26;20034;-66
2024/04/09 00:57:24;;;;;;;94.22;62.47;;;;;;;;;;5449472;26;20013;-66
2024/04/09 00:59:52;;;;;;;96.30;63.05;;;;;;;;;;5449432;26;20086;-66
2024/04/09 01:02:19;;;;;;;95.38;62.28;;;;;;;;;;5449384;26;20014;-66
2024/04/09 01:04:45;;;;;;;90.95;59.38;;;;;;;;;;5449554;26;20031;-66
2024/04/09 01:07:11;;;;;;;94.57;63.33;;;;;;;;;;5449281;26;19999;-65
2024/04/09 01:09:41;;;;;;;94.60;62.03;;;;;;;;;;5449762;26;20007;-65
2024/04/09 01:12:07;;;;;;;92.45;60.38;;;;;;;;;;5448850;26;19999;-66
2024/04/09 01:14:33;;;;;;;92.10;60.78;;;;;;;;;;5449621;26;20007;-66
2024/04/09 01:16:59;;;;;;;86.32;57.47;;;;;;;;;;5449445;26;20005;-66
2024/04/09 01:19:25;;;;;;;86.88;56.90;;;;;;;;;;5449621;26;20738;-66
2024/04/09 01:21:53;;;;;;;86.90;56.67;;;;;;;;;;5448989;26;20030;-66
2024/04/09 01:24:19;;;;;;;89.82;59.13;;;;;;;;;;5450677;26;20018;-66
2024/04/09 01:26:48;;;;;;;88.85;58.55;;;;;;;;;;5451558;26;20431;-67
2024/04/09 01:29:15;;;;;;;90.07;57.78;;;;;;;;;;5451102;26;20010;-67
2024/04/09 01:31:41;;;;;;;86.15;57.05;;;;;;;;;;5451224;26;20003;-67
2024/04/09 01:34:09;;;;;;;83.78;55.03;;;;;;;;;;5443630;26;20011;-66
2024/04/09 01:36:35;;;;;;;82.97;54.33;;;;;;;;;;5448995;26;19998;-66
2024/04/09 01:39:01;;;;;;;83.10;54.72;;;;;;;;;;5448767;26;20009;-67
2024/04/09 01:41:27;;;;;;;81.90;52.97;;;;;;;;;;5448464;26;20007;-67
2024/04/09 01:43:53;;;;;;;79.82;52.50;;;;;;;;;;5448536;26;20031;-68
2024/04/09 01:46:19;;;;;;;78.57;52.22;;;;;;;;;;5448784;26;19999;-68
2024/04/09 01:48:47;;;;;;;83.20;53.25;;;;;;;;;;5448788;26;20358;-68
2024/04/09 01:51:13;;;;;;;80.68;53.65;;;;;;;;;;5448612;26;20007;-67
2024/04/09 01:53:43;;;;;;;75.07;51.80;;;;;;;;;;5448557;26;20045;-68
2024/04/09 01:56:09;;;;;;;78.03;52.38;;;;;;;;;;5448854;26;20438;-68
2024/04/09 01:58:36;;;;;;;75.53;50.20;;;;;;;;;;5449154;26;20013;-67
2024/04/09 02:01:10;;;;;;;82.47;52.85;;;;;;;;;;5448603;26;20010;-67
2024/04/09 02:03:39;;;;;;;79.80;52.83;;;;;;;;;;5448524;26;20022;-68
2024/04/09 02:06:09;;;;;;;74.85;49.30;;;;;;;;;;5448113;26;20096;-67
2024/04/09 02:08:37;;;;;;;71.60;47.50;;;;;;;;;;5448493;26;20029;-68
2024/04/09 02:11:05;;;;;;;73.25;47.33;;;;;;;;;;5448373;26;20039;-68
2024/04/09 02:13:31;;;;;;;69.72;46.03;;;;;;;;;;5448314;26;20002;-68
2024/04/09 02:15:59;;;;;;;68.95;47.13;;;;;;;;;;5448357;26;20466;-66
2024/04/09 02:18:26;;;;;;;69.78;45.97;;;;;;;;;;5417022;26;20007;-68
2024/04/09 02:20:53;;;;;;;69.93;46.05;;;;;;;;;;5448361;26;20018;-68
2024/04/09 02:23:19;;;;;;;67.97;44.40;;;;;;;;;;5448220;26;20022;-68
2024/04/09 02:25:45;;;;;;;65.30;44.70;;;;;;;;;;5448322;26;20017;-68
2024/04/09 02:28:12;;;;;;;72.53;46.75;;;;;;;;;;5448409;26;20096;-69
2024/04/09 02:30:38;;;;;;;78.47;50.30;;;;;;;;;;5448444;26;20039;-68
2024/04/09 02:33:04;;;;;;;75.25;50.25;;;;;;;;;;5416585;26;20098;-68
2024/04/09 02:35:30;;;;;;;85.80;46.88;;;;;;;;;;5442154;26;20347;-68
2024/04/09 02:37:58;;;;;;;69.15;45.70;;;;;;;;;;5447206;26;20007;-67
2024/04/09 02:40:25;;;;;;;65.90;43.15;;;;;;;;;;5448449;26;20417;-68
2024/04/09 02:42:51;;;;;;;84.57;42.53;;;;;;;;;;5447758;26;20038;-67
2024/04/09 02:45:20;;;;;;;65.70;42.83;;;;;;;;;;5447957;26;20011;-69
2024/04/09 02:47:46;;;;;;;65.97;42.17;;;;;;;;;;5447873;26;20003;-69
2024/04/09 02:50:12;;;;;;;65.38;39.47;;;;;;;;;;5447541;26;20003;-67
2024/04/09 02:52:38;;;;;;;59.08;39.15;;;;;;;;;;5420958;26;20000;-68
2024/04/09 02:55:04;;;;;;;61.80;39.50;;;;;;;;;;5445125;26;20003;-68
2024/04/09 02:57:31;;;;;;;64.70;39.17;;;;;;;;;;5448114;26;20003;-68
2024/04/09 02:59:57;;;;;;;60.97;38.70;;;;;;;;;;5447648;26;19995;-67
2024/04/09 03:02:23;;;;;;;61.97;36.60;;;;;;;;;;5447464;26;20083;-68
2024/04/09 03:04:51;;;;;;;62.83;36.22;;;;;;;;;;5447463;26;20010;-67
2024/04/09 03:07:17;;;;;;;59.10;37.42;;;;;;;;;;5447727;26;20017;-68
2024/04/09 03:09:43;;;;;;;58.25;35.10;;;;;;;;;;5447717;26;19999;-67
2024/04/09 03:12:10;;;;;;;56.83;35.70;;;;;;;;;;5447213;26;20326;-67
2024/04/09 03:14:36;;;;;;;56.13;35.47;;;;;;;;;;5447436;26;20010;-68
2024/04/09 03:17:03;;;;;;;53.20;34.53;;;;;;;;;;5446972;26;19998;-68
2024/04/09 03:19:29;;;;;;;55.80;34.25;;;;;;;;;;5447176;26;19999;-67
2024/04/09 03:21:55;;;;;;;51.15;33.75;;;;;;;;;;5446681;26;20071;-67
2024/04/09 03:24:21;;;;;;;53.50;34.10;;;;;;;;;;5447391;26;19999;-66
2024/04/09 03:26:47;;;;;;;54.85;34.70;;;;;;;;;;5447048;26;19998;-67
2024/04/09 03:29:13;;;;;;;57.22;34.20;;;;;;;;;;5446895;26;20018;-67
2024/04/09 03:31:39;;;;;;;53.72;34.63;;;;;;;;;;5446699;26;20454;-67
2024/04/09 03:34:07;;;;;;;55.05;34.47;;;;;;;;;;5440633;26;20003;-67
2024/04/09 03:36:33;;;;;;;60.25;33.83;;;;;;;;;;5447418;26;20031;-67
2024/04/09 03:38:59;;;;;;;51.25;33.10;;;;;;;;;;5446909;26;20400;-67
2024/04/09 03:41:25;;;;;;;51.80;31.92;;;;;;;;;;5446975;26;20002;-67
2024/04/09 03:43:51;;;;;;;52.25;32.42;;;;;;;;;;5446663;26;20003;-66
2024/04/09 03:46:17;;;;;;;55.42;34.38;;;;;;;;;;5446466;26;20438;-67
2024/04/09 03:48:44;;;;;;;54.20;34.75;;;;;;;;;;5446927;26;20003;-67
2024/04/09 03:51:11;;;;;;;50.70;32.97;;;;;;;;;;5450519;26;20139;-66
2024/04/09 03:53:37;;;;;;;59.50;33.30;;;;;;;;;;5450444;26;20017;-66
2024/04/09 03:56:04;;;;;;;49.25;30.73;;;;;;;;;;5450291;26;20003;-67
2024/04/09 03:58:31;;;;;;;47.78;31.10;;;;;;;;;;5450401;26;20003;-67
2024/04/09 04:00:57;;;;;;;46.20;28.73;;;;;;;;;;5449834;26;20010;-67
2024/04/09 04:03:25;;;;;;;44.85;29.10;;;;;;;;;;5449880;26;20003;-67
2024/04/09 04:05:54;;;;;;;41.33;28.67;;;;;;;;;;5449614;26;20003;-67
2024/04/09 04:08:24;;;;;;;49.22;27.05;;;;;;;;;;5449918;26;20014;-67
2024/04/09 04:11:00;;;;;;;42.47;27.25;;;;;;;;;;5450306;26;20043;-67
2024/04/09 04:13:28;;;;;;;40.45;26.38;;;;;;;;;;5425599;26;20031;-68
2024/04/09 04:16:04;;;;;;;37.58;24.85;;;;;;;;;;5449465;26;20007;-67
2024/04/09 04:18:36;;;;;;;34.85;23.25;;;;;;;;;;5449858;26;20011;-67
2024/04/09 04:21:02;;;;;;;33.67;22.25;;;;;;;;;;5449684;26;20042;-67
2024/04/09 04:23:28;;;;;;;33.88;21.95;;;;;;;;;;5449725;26;20002;-67
2024/04/09 04:25:54;;;;;;;32.30;21.63;;;;;;;;;;5449372;26;20003;-67
2024/04/09 04:28:20;;;;;;;36.00;21.77;;;;;;;;;;5423649;26;20526;-67
2024/04/09 04:30:46;;;;;;;31.58;22.13;;;;;;;;;;5449505;26;20009;-67
2024/04/09 04:33:12;;;;;;;31.48;20.50;;;;;;;;;;5449028;26;20012;-67
2024/04/09 04:35:38;;;;;;;32.15;20.73;;;;;;;;;;5443146;26;20003;-67
2024/04/09 04:38:05;;;;;;;28.40;19.05;;;;;;;;;;5419978;26;20023;-67
2024/04/09 04:40:31;;;;;;;30.83;19.67;;;;;;;;;;5449709;26;20079;-66
2024/04/09 04:42:57;;;;;;;27.45;18.98;;;;;;;;;;5417149;26;20007;-69
2024/04/09 04:45:23;;;;;;;27.00;19.52;;;;;;;;;;5449402;26;20013;-68
2024/04/09 04:47:49;;;;;;;25.52;17.67;;;;;;;;;;5449386;26;20003;-69
2024/04/09 04:50:15;;;;;;;27.08;17.60;;;;;;;;;;5449026;26;20039;-69
2024/04/09 04:52:41;;;;;;;26.13;17.05;;;;;;;;;;5449066;26;20002;-68
2024/04/09 04:55:07;;;;;;;25.05;16.90;;;;;;;;;;5448948;26;20419;-69
2024/04/09 04:57:33;;;;;;;24.02;17.00;;;;;;;;;;5449735;26;20050;-68
2024/04/09 04:59:59;;;;;;;23.38;15.18;;;;;;;;;;5438842;26;20039;-69
2024/04/09 05:02:27;;;;;;;23.55;14.82;;;;;;;;;;5412250;26;19999;-69
2024/04/09 05:04:54;;;;;;;22.40;14.98;;;;;;;;;;5410365;26;20035;-68
2024/04/09 05:07:20;;;;;;;21.23;14.55;;;;;;;;;;5412758;26;20003;-67
2024/04/09 05:09:47;;;;;;;20.20;14.18;;;;;;;;;;5413436;26;20343;-67
2024/04/09 05:12:13;;;;;;;27.38;15.00;;;;;;;;;;5433368;26;20083;-66
2024/04/09 05:14:39;;;;;;;21.52;14.00;;;;;;;;;;5449565;26;19995;-67
2024/04/09 05:17:05;;;;;;;20.40;13.73;;;;;;;;;;5422152;26;20018;-68
2024/04/09 05:19:33;;;;;;;20.98;13.77;;;;;;;;;;5449120;26;20444;-67
2024/04/09 05:21:59;;;;;;;23.55;14.90;;;;;;;;;;5413889;26;20022;-66
2024/04/09 05:24:25;;;;;;;22.08;14.32;;;;;;;;;;5447923;26;20002;-67
2024/04/09 05:26:51;;;;;;;24.00;13.77;;;;;;;;;;5449222;26;20020;-68
2024/04/09 05:29:17;;;;;;;22.77;13.80;;;;;;;;;;5449177;26;19999;-67
2024/04/09 05:31:43;;;;;;;21.15;13.50;;;;;;;;;;5449436;26;20010;-67
2024/04/09 05:34:09;;;;;;;21.23;13.65;;;;;;;;;;5442061;26;20486;-67
2024/04/09 05:36:35;;;;;;;22.17;13.95;;;;;;;;;;5461276;26;20002;-67
2024/04/09 05:39:03;;;;;;;19.70;11.25;;;;;;;;;;5437680;26;20006;-69
2024/04/09 05:41:29;;;;;;;15.43;7.30;;;;;;;;;;5433849;26;20427;-69
2024/04/09 05:43:55;;;;;;;12.00;6.53;;;;;;;;;;5430809;26;20003;-68
2024/04/09 05:46:21;;;;;;;6.53;4.78;;;;;;;;;;5448948;26;20079;-68
2024/04/09 05:48:47;;;;;;;8.23;4.00;;;;;;;;;;5417406;26;19999;-69
2024/04/09 05:51:13;;;;;;;8.35;3.60;;;;;;;;;;5448589;26;20110;-69
2024/04/09 05:53:39;;;;;;;8.43;3.30;;;;;;;;;;5437019;26;20209;-69
2024/04/09 05:56:05;;;;;;;4.68;2.78;;;;;;;;;;5431350;26;20104;-69
2024/04/09 05:58:32;;;;;;;6.22;2.90;;;;;;;;;;5449074;26;20003;-68
2024/04/09 06:01:00;;;;;;;5.45;2.50;;;;;;;;;;5448586;26;20026;-66
2024/04/09 06:03:27;;;;;;;13.90;3.58;;;;;;;;;;5448772;26;20062;-68
2024/04/09 06:05:55;;;;;;;10.60;3.00;;;;;;;;;;5417468;26;20017;-69
2024/04/09 06:08:21;;;;;;;9.98;3.47;;;;;;;;;;5449464;26;20451;-69
2024/04/09 06:10:48;;;;;;;6.75;3.28;;;;;;;;;;5449478;26;20017;-68
2024/04/09 06:13:14;;;;;;;11.57;3.83;;;;;;;;;;5448139;26;20704;-69
2024/04/09 06:15:40;;;;;;;14.52;4.38;;;;;;;;;;5450254;26;19999;-68
2024/04/09 06:18:06;;;;;;;17.80;4.45;;;;;;;;;;5438007;21;19999;-66
2024/04/09 06:20:32;;;;;;;15.35;4.25;;;;;;;;;;5414327;26;20006;-66
2024/04/09 06:22:58;;;;;;;10.98;4.25;;;;;;;;;;5379428;26;20023;-67
2024/04/09 06:25:24;;;;;;;10.68;4.53;;;;;;;;;;5378007;26;20471;-66
2024/04/09 06:27:50;;;;;;;31.25;5.20;;;;;;;;;;5379494;26;20076;-66
2024/04/09 06:30:16;;;;;;;13.10;4.65;;;;;;;;;;5379383;26;20468;-65
2024/04/09 06:32:42;;;;;;;8.70;3.25;;;;;;;;;;5378565;26;20004;-65
2024/04/09 06:35:08;;;;;;;2.53;1.83;;;;;;;;;;5377680;26;20022;-66
2024/04/09 06:37:38;;;;;;;5.95;2.13;;;;;;;;;;5379394;26;20012;-66
2024/04/09 06:40:07;;;;;;;3.38;2.20;;;;;;;;;;5379707;26;20016;-67
2024/04/09 06:42:36;;;;;;;7.35;2.28;;;;;;;;;;5377028;26;20000;-66
2024/04/09 06:45:03;;;;;;;6.00;2.33;;;;;;;;;;5377250;26;20782;-66
2024/04/09 06:47:29;;;;;;;4.03;2.22;;;;;;;;;;5377649;26;20000;-65
2024/04/09 06:49:56;;;;;;;7.72;1.60;;;;;;;;;;5376721;26;20000;-66
2024/04/09 06:52:22;;;;;;;9.93;2.45;;;;;;;;;;5376923;26;20072;-65
2024/04/09 06:54:48;;;;;;;2.90;2.10;;;;;;;;;;5378775;26;20011;-65
2024/04/09 06:57:14;;;;;;;7.20;1.65;;;;;;;;;;5377670;26;19996;-65
2024/04/09 06:59:40;;;;;;;5.95;1.40;;;;;;;;;;5378846;26;20000;-65
2024/04/09 07:02:08;;;;;;;2.53;1.42;;;;;;;;;;5378848;26;20039;-65
2024/04/09 07:04:34;;;;;;;0.90;0.75;;;;;;;;;;5379400;26;20000;-66
2024/04/09 07:07:00;;;;;;;1.83;1.00;;;;;;;;;;5380349;26;20074;-66
2024/04/09 07:09:26;;;;;;;1.50;1.08;;;;;;;;;;5379726;26;19996;-65
2024/04/09 07:11:53;;;;;;;3.42;1.20;;;;;;;;;;5377977;26;20468;-65
2024/04/09 07:14:19;;;;;;;2.15;1.15;;;;;;;;;;5379182;26;20475;-65
2024/04/09 07:16:45;;;;;;;2.03;1.35;;;;;;;;;;5378525;26;20000;-65
2024/04/09 07:19:11;;;;;;;2.90;1.50;;;;;;;;;;5378885;26;20418;-65
2024/04/09 07:21:38;;;;;;;1.95;1.20;;;;;;;;;;5378436;26;20357;-63
2024/04/09 07:24:05;;;;;;;1.80;1.40;;;;;;;;;;5380522;26;19996;-65
2024/04/09 07:26:31;;;;;;;2.05;1.33;;;;;;;;;;5382214;26;20011;-64
2024/04/09 07:28:57;;;;;;;2.60;1.48;;;;;;;;;;5381824;26;19997;-65
2024/04/09 07:31:23;;;;;;;2.53;1.52;;;;;;;;;;5381652;26;20444;-65
2024/04/09 07:33:49;;;;;;;1.98;1.17;;;;;;;;;;5381673;26;20073;-65
2024/04/09 07:36:16;;;;;;;2.40;1.02;;;;;;;;;;5381765;26;19996;-64
2024/04/09 07:38:42;;;;;;;1.48;1.30;;;;;;;;;;5382512;26;20015;-65
2024/04/09 07:41:08;;;;;;;2.25;1.30;;;;;;;;;;5381813;26;20073;-65
2024/04/09 07:43:34;;;;;;;2.67;1.20;;;;;;;;;;5381390;26;20008;-65
2024/04/09 07:46:01;;;;;;;2.03;1.30;;;;;;;;;;5382139;26;19996;-65
2024/04/09 07:48:27;;;;;;;1.70;1.40;;;;;;;;;;5382073;26;20007;-65
2024/04/09 07:50:53;;;;;;;2.13;1.33;;;;;;;;;;5381746;26;20016;-65
2024/04/09 07:53:20;;;;;;;1.65;1.25;;;;;;;;;;5381244;26;20476;-64
2024/04/09 07:55:47;;;;;;;2.33;1.30;;;;;;;;;;5380238;26;20348;-65
2024/04/09 07:58:13;;;;;;;1.92;1.05;;;;;;;;;;5381881;26;19996;-65
2024/04/09 08:00:39;;;;;;;1.25;0.90;;;;;;;;;;5381742;26;20007;-65
2024/04/09 08:03:05;;;;;;;2.38;1.33;;;;;;;;;;5381094;26;20024;-65
2024/04/09 08:05:32;;;;;;;1.35;1.25;;;;;;;;;;5381466;26;20015;-64
2024/04/09 08:07:58;;;;;;;2.13;1.20;;;;;;;;;;5381772;26;19996;-64
2024/04/09 08:10:24;;;;;;;1.10;1.00;;;;;;;;;;5381419;26;20069;-65
2024/04/09 08:12:51;;;;;;;1.23;1.08;;;;;;;;;;5381246;26;20008;-65
2024/04/09 08:15:18;;;;;;;3.17;1.23;;;;;;;;;;5381578;26;20006;-65
2024/04/09 08:17:44;;;;;;;1.20;1.00;;;;;;;;;;5381272;26;20073;-65
2024/04/09 08:20:13;;;;;;;0.90;0.90;;;;;;;;;;5381473;26;20011;-65
2024/04/09 08:22:39;;;;;;;1.70;1.15;;;;;;;;;;5381547;26;20007;-65
2024/04/09 08:25:07;;;;;;;1.67;0.98;;;;;;;;;;5381219;26;20004;-65
2024/04/09 08:27:34;;;;;;;1.10;0.93;;;;;;;;;;5379552;26;20015;-65
2024/04/09 08:30:00;;;;;;;1.35;0.85;;;;;;;;;;5381198;26;20015;-65
2024/04/09 08:32:26;;;;;;;1.20;1.10;;;;;;;;;;5380627;26;20349;-65
2024/04/09 08:34:53;;;;;;;1.33;0.93;;;;;;;;;;5379762;26;20015;-65
2024/04/09 08:37:19;;;;;;;1.80;1.10;;;;;;;;;;5360002;26;20008;-65
2024/04/09 08:39:53;;;;;;;1.70;1.10;;;;;;;;;;5346294;26;20465;-64
2024/04/09 08:42:19;;;;;;;1.42;1.20;;;;;;;;;;5345831;26;20000;-64
2024/04/09 08:44:47;;;;;;;1.48;1.10;;;;;;;;;;5346054;26;20040;-65
2024/04/09 08:47:13;;;;;;;1.83;1.10;;;;;;;;;;5346203;26;20387;-65
2024/04/09 08:49:39;;;;;;;2.13;1.00;;;;;;;;;;5357606;26;20000;-65
2024/04/09 08:52:06;;;;;;;1.30;1.05;;;;;;;;;;5380548;26;20019;-64
2024/04/09 08:54:32;;;;;;;1.05;0.95;;;;;;;;;;5380917;26;20340;-65
2024/04/09 08:56:59;;;;;;;0.90;0.90;;;;;;;;;;5380709;26;20000;-65
2024/04/09 08:59:26;;;;;;;1.83;0.90;;;;;;;;;;5380661;26;20014;-65
2024/04/09 09:01:54;;;;;;;0.68;0.63;;;;;;;;;;5380496;26;20000;-64
2024/04/09 09:04:20;;;;;;;0.75;0.75;;;;;;;;;;5380988;26;20019;-65
2024/04/09 09:06:46;;;;;;;1.50;1.00;;;;;;;;;;5381057;26;20004;-65
2024/04/09 09:09:22;;;;;;;1.63;1.00;;;;;;;;;;5380826;26;20077;-65
2024/04/09 09:11:48;;;;;;;2.05;1.42;;;;;;;;;;5380311;26;20044;-64
2024/04/09 09:14:14;;;;;;;0.73;0.73;;;;;;;;;;5380738;26;20005;-65
2024/04/09 09:16:40;;;;;;;3.53;1.17;;;;;;;;;;5380542;26;20000;-65
2024/04/09 09:19:06;;;;;;;1.20;0.90;;;;;;;;;;5380591;26;20020;-65
2024/04/09 09:21:32;;;;;;;2.03;1.13;;;;;;;;;;5380373;26;20038;-65
2024/04/09 09:23:59;;;;;;;2.10;0.82;;;;;;;;;;5380501;26;20004;-65
2024/04/09 09:26:25;;;;;;;1.10;1.00;;;;;;;;;;5380523;26;20014;-65
2024/04/09 09:29:01;;;;;;;1.10;0.90;;;;;;;;;;5380354;26;20340;-65
2024/04/09 09:31:27;;;;;;;1.00;0.90;;;;;;;;;;5380330;26;20004;-65
2024/04/09 09:33:55;;;;;;;1.00;0.90;;;;;;;;;;5380643;26;20086;-64
2024/04/09 09:36:22;;;;;;;1.20;0.90;;;;;;;;;;5381064;26;20077;-64
2024/04/09 09:38:48;;;;;;;1.15;0.88;;;;;;;;;;5381232;26;20000;-64
2024/04/09 09:41:14;;;;;;;1.13;0.93;;;;;;;;;;5378879;26;20004;-64
2024/04/09 09:43:42;;;;;;;1.23;0.93;;;;;;;;;;5380402;26;20486;-65
2024/04/09 09:46:11;;;;;;;1.50;0.80;;;;;;;;;;5379615;26;20484;-64
2024/04/09 09:48:38;;;;;;;0.90;0.70;;;;;;;;;;5379158;26;20000;-64
2024/04/09 09:51:04;;;;;;;1.10;0.73;;;;;;;;;;5380011;26;20462;-65
2024/04/09 09:53:30;;;;;;;1.15;0.70;;;;;;;;;;5379878;26;19996;-64
2024/04/09 09:55:58;;;;;;;0.77;0.75;;;;;;;;;;5378041;26;20487;-64
2024/04/09 09:58:26;;;;;;;0.80;0.60;;;;;;;;;;5380175;26;20004;-65
2024/04/09 10:00:52;;;;;;;0.98;0.82;;;;;;;;;;5380487;26;20000;-65
2024/04/09 10:03:18;;;;;;;1.00;0.77;;;;;;;;;;5379599;26;20082;-64
2024/04/09 10:05:45;;;;;;;0.77;0.70;;;;;;;;;;5378468;26;20000;-64
2024/04/09 10:08:17;;;;;;;0.70;0.68;;;;;;;;;;5379889;26;20015;-65
2024/04/09 10:10:43;;;;;;;0.68;0.60;;;;;;;;;;5380079;26;20004;-64
2024/04/09 10:13:09;;;;;;;0.90;0.60;;;;;;;;;;5379597;26;20007;-65
2024/04/09 10:15:35;;;;;;;0.70;0.63;;;;;;;;;;5379595;26;20357;-65
2024/04/09 10:18:04;;;;;;;0.90;0.85;;;;;;;;;;5379499;26;20043;-65
2024/04/09 10:20:31;;;;;;;0.82;0.82;;;;;;;;;;5379554;26;20019;-65
2024/04/09 10:23:01;;;;;;;0.70;0.52;;;;;;;;;;5379516;26;20041;-64
2024/04/09 10:25:31;;;;;;;1.00;0.95;;;;;;;;;;5379597;26;20015;-65
2024/04/09 10:28:04;;;;;;;0.77;0.60;;;;;;;;;;5380101;26;20004;-65
2024/04/09 10:30:32;;;;;;;1.45;0.57;;;;;;;;;;5380196;26;20015;-64
2024/04/09 10:33:00;;;;;;;0.88;0.70;;;;;;;;;;5379483;26;20023;-65
2024/04/09 10:35:26;;;;;;;0.52;0.52;;;;;;;;;;5379935;26;20008;-65
2024/04/09 10:37:52;;;;;;;0.73;0.73;;;;;;;;;;5380720;26;20036;-64
2024/04/09 10:40:19;;;;;;;0.70;0.70;;;;;;;;;;5381438;26;19996;-64
2024/04/09 10:42:45;;;;;;;2.97;0.73;;;;;;;;;;5385109;26;20081;-65
2024/04/09 10:45:11;;;;;;;0.77;0.77;;;;;;;;;;5388465;26;20047;-65
2024/04/09 10:47:38;;;;;;;0.70;0.70;;;;;;;;;;5388159;26;20000;-65
2024/04/09 10:50:05;;;;;;;1.55;0.70;;;;;;;;;;5387567;26;20019;-65
2024/04/09 10:52:32;;;;;;;1.05;0.73;;;;;;;;;;5386001;26;20107;-65
2024/04/09 10:55:06;;;;;;;1.08;0.98;;;;;;;;;;5380193;26;20032;-65
2024/04/09 10:57:32;;;;;;;0.80;0.60;;;;;;;;;;5379047;26;20019;-64
2024/04/09 11:00:10;;;;;;;0.70;0.68;;;;;;;;;;5355413;26;20444;-65
2024/04/09 11:02:37;;;;;;;0.85;0.60;;;;;;;;;;5347239;26;20004;-65
2024/04/09 11:05:05;;;;;;;0.85;0.85;;;;;;;;;;5347376;26;20009;-65
2024/04/09 11:07:38;;;;;;;0.88;0.80;;;;;;;;;;5347232;26;20017;-65
2024/04/09 11:10:05;;;;;;;0.70;0.70;;;;;;;;;;5347167;26;20364;-65
2024/04/09 11:12:31;;;;;;;0.88;0.70;;;;;;;;;;5354946;26;20077;-65
2024/04/09 11:14:58;;;;;;;1.27;0.70;;;;;;;;;;5382254;26;19996;-65
2024/04/09 11:17:24;;;;;;;0.55;0.47;;;;;;;;;;5382178;26;20410;-65
2024/04/09 11:19:50;;;;;;;0.60;0.60;;;;;;;;;;5382116;26;19996;-65
2024/04/09 11:22:16;;;;;;;0.88;0.75;;;;;;;;;;5381656;26;20011;-65
2024/04/09 11:24:43;;;;;;;0.50;0.47;;;;;;;;;;5382194;26;20051;-64
2024/04/09 11:27:10;;;;;;;0.50;0.50;;;;;;;;;;5380385;26;20028;-64
2024/04/09 11:29:36;;;;;;;0.95;0.65;;;;;;;;;;5382036;26;20458;-65
2024/04/09 11:32:02;;;;;;;1.42;0.70;;;;;;;;;;5381646;26;20484;-64
2024/04/09 11:34:31;;;;;;;0.50;0.50;;;;;;;;;;5381378;26;20011;-65
2024/04/09 11:36:59;;;;;;;0.50;0.50;;;;;;;;;;5382114;26;20040;-65
2024/04/09 11:39:26;;;;;;;0.50;0.47;;;;;;;;;;5381999;26;20000;-65
2024/04/09 11:41:53;;;;;;;0.50;0.50;;;;;;;;;;5381454;26;20348;-65
2024/04/09 11:44:20;;;;;;;0.50;0.50;;;;;;;;;;5381873;26;20001;-65
2024/04/09 11:46:46;;;;;;;0.73;0.73;;;;;;;;;;5381700;26;20014;-65
2024/04/09 11:49:12;;;;;;;0.63;0.50;;;;;;;;;;5381676;26;20015;-65
2024/04/09 11:51:42;;;;;;;0.50;0.50;;;;;;;;;;5381475;26;20371;-64
2024/04/09 11:54:08;;;;;;;0.40;0.40;;;;;;;;;;5381632;26;20015;-65
2024/04/09 11:56:38;;;;;;;0.50;0.50;;;;;;;;;;5381620;26;20471;-65
2024/04/09 11:59:04;;;;;;;0.63;0.47;;;;;;;;;;5381910;26;20081;-65
2024/04/09 12:01:30;;;;;;;0.57;0.52;;;;;;;;;;5381358;26;20410;-65
2024/04/09 12:03:56;;;;;;;0.57;0.52;;;;;;;;;;5382651;26;20491;-65
2024/04/09 12:06:23;;;;;;;0.50;0.50;;;;;;;;;;5382979;26;20000;-65
2024/04/09 12:08:49;;;;;;;0.45;0.45;;;;;;;;;;5382538;26;20023;-65
2024/04/09 12:11:15;;;;;;;1.77;0.50;;;;;;;;;;5381102;26;20008;-65
2024/04/09 12:13:41;;;;;;;0.55;0.55;;;;;;;;;;5381347;26;20000;-65
2024/04/09 12:16:07;;;;;;;0.70;0.70;;;;;;;;;;5381374;26;20000;-65
2024/04/09 12:18:34;;;;;;;0.52;0.40;;;;;;;;;;5382065;26;20019;-65
2024/04/09 12:21:00;;;;;;;0.70;0.60;;;;;;;;;;5381133;26;20023;-65
2024/04/09 12:23:26;;;;;;;0.50;0.47;;;;;;;;;;5381033;26;20040;-65
2024/04/09 12:25:52;;;;;;;0.95;0.30;;;;;;;;;;5381260;26;20484;-65
2024/04/09 12:28:18;;;;;;;0.40;0.40;;;;;;;;;;5381115;26;20015;-65
2024/04/09 12:30:44;;;;;;;0.55;0.55;;;;;;;;;;5381389;26;20011;-65
2024/04/09 12:33:10;;;;;;;0.57;0.57;;;;;;;;;;5381522;26;20001;-65
2024/04/09 12:35:36;;;;;;;0.40;0.32;;;;;;;;;;5381124;26;20012;-65
2024/04/09 12:38:03;;;;;;;0.35;0.35;;;;;;;;;;5379204;26;20360;-65
2024/04/09 12:40:29;;;;;;;0.43;0.43;;;;;;;;;;5381291;26;19997;-65
2024/04/09 12:42:55;;;;;;;0.50;0.40;;;;;;;;;;5380696;26;20345;-65
2024/04/09 12:45:21;;;;;;;0.45;0.45;;;;;;;;;;5380912;26;20018;-65
2024/04/09 12:47:47;;;;;;;0.95;0.35;;;;;;;;;;5380785;26;20015;-65
2024/04/09 12:50:14;;;;;;;0.65;0.40;;;;;;;;;;5380656;26;20001;-65
2024/04/09 12:52:45;;;;;;;0.35;0.30;;;;;;;;;;5380564;26;20004;-65
2024/04/09 12:55:11;;;;;;;0.30;0.30;;;;;;;;;;5380817;26;20000;-65
2024/04/09 12:57:37;;;;;;;0.30;0.30;;;;;;;;;;5380874;26;20000;-65
2024/04/09 13:00:08;;;;;;;1.20;0.47;;;;;;;;;;5380797;26;20078;-65
2024/04/09 13:02:34;;;;;;;0.57;0.55;;;;;;;;;;5380390;26;20544;-64
2024/04/09 13:05:00;;;;;;;0.40;0.30;;;;;;;;;;5380442;26;20078;-65
2024/04/09 13:07:27;;;;;;;0.40;0.40;;;;;;;;;;5380193;26;20004;-65
2024/04/09 13:09:53;;;;;;;0.52;0.40;;;;;;;;;;5380696;26;20453;-65
2024/04/09 13:12:19;;;;;;;0.35;0.35;;;;;;;;;;5379815;26;20011;-65
2024/04/09 13:14:45;;;;;;;0.30;0.30;;;;;;;;;;5380456;26;20078;-65
2024/04/09 13:17:11;;;;;;;0.47;0.47;;;;;;;;;;5379549;26;20004;-65
2024/04/09 13:19:37;;;;;;;0.50;0.50;;;;;;;;;;5380604;26;20000;-65
2024/04/09 13:22:03;;;;;;;0.50;0.40;;;;;;;;;;5379829;26;20015;-65
2024/04/09 13:24:30;;;;;;;0.30;0.30;;;;;;;;;;5380408;26;20044;-65
2024/04/09 13:26:56;;;;;;;0.50;0.22;;;;;;;;;;5380324;26;20073;-65
2024/04/09 13:29:23;;;;;;;0.82;0.30;;;;;;;;;;5379747;26;20357;-65
2024/04/09 13:31:50;;;;;;;0.30;0.30;;;;;;;;;;5377816;26;20032;-65
2024/04/09 13:34:16;;;;;;;0.50;0.50;;;;;;;;;;5380774;26;20000;-65
2024/04/09 13:36:42;;;;;;;0.82;0.40;;;;;;;;;;5380334;26;20115;-65
2024/04/09 13:39:08;;;;;;;0.63;0.40;;;;;;;;;;5380300;26;20348;-65
2024/04/09 13:41:34;;;;;;;0.40;0.40;;;;;;;;;;5380237;26;20019;-65
2024/04/09 13:44:00;;;;;;;0.20;0.20;;;;;;;;;;5380042;26;20324;-65
2024/04/09 13:46:26;;;;;;;0.60;0.40;;;;;;;;;;5380292;26;20012;-65
2024/04/09 13:48:52;;;;;;;0.32;0.32;;;;;;;;;;5379904;26;20004;-65
2024/04/09 13:51:18;;;;;;;0.60;0.50;;;;;;;;;;5380157;26;20004;-63
2024/04/09 13:53:44;;;;;;;0.63;0.45;;;;;;;;;;5380155;26;20011;-65
2024/04/09 13:56:11;;;;;;;0.40;0.40;;;;;;;;;;5380336;26;20016;-65
2024/04/09 13:58:37;;;;;;;0.30;0.30;;;;;;;;;;5379955;26;20014;-65
2024/04/09 14:01:03;;;;;;;0.50;0.43;;;;;;;;;;5379968;26;20015;-65
2024/04/09 14:03:29;;;;;;;1.02;0.32;;;;;;;;;;5379764;26;20078;-65
2024/04/09 14:05:55;;;;;;;0.38;0.38;;;;;;;;;;5379889;26;20008;-66
2024/04/09 14:08:20;;;;;;;0.90;0.30;;;;;;;;;;5378085;26;20000;-66
2024/04/09 14:10:47;;;;;;;1.00;0.50;;;;;;;;;;5380140;26;20011;-64
2024/04/09 14:13:13;;;;;;;1.95;0.73;;;;;;;;;;5379517;26;19996;-64
2024/04/09 14:15:39;;;;;;;0.77;0.50;;;;;;;;;;5380284;26;20011;-64
2024/04/09 14:18:08;;;;;;;0.40;0.40;;;;;;;;;;5379506;26;20448;-64
2024/04/09 14:20:34;;;;;;;0.50;0.50;;;;;;;;;;5380240;26;19996;-64
2024/04/09 14:23:00;;;;;;;0.43;0.43;;;;;;;;;;5355304;26;20013;-64
2024/04/09 14:25:26;;;;;;;0.82;0.50;;;;;;;;;;5345844;26;20019;-64
2024/04/09 14:27:52;;;;;;;0.38;0.30;;;;;;;;;;5347254;26;20005;-65